sensor_id;sensor_type;location;lat;lon;timestamp;P1;durP1;ratioP1;P2;durP2;ratioP2
6372;SDS011;3219;51.362;7.074;2023-07-08T00:01:56;3.35;;;2.15;;
6372;SDS011;3219;51.362;7.074;2023-07-08T00:04:23;2.85;;;1.60;;
6372;SDS011;3219;51.362;7.074;2023-07-08T00:06:51;3.38;;;2.13;;
6372;SDS011;3219;51.362;7.074;2023-07-08T00:09:19;3.40;;;2.47;;
6372;SDS011;3219;51.362;7.074;2023-07-08T00:11:46;2.53;;;1.63;;
6372;SDS011;3219;51.362;7.074;2023-07-08T00:14:13;2.58;;;1.83;;
6372;SDS011;3219;51.362;7.074;2023-07-08T00:16:40;3.28;;;2.05;;
6372;SDS011;3219;51.362;7.074;2023-07-08T00:19:08;3.15;;;1.58;;
6372;SDS011;3219;51.362;7.074;2023-07-08T00:21:35;2.83;;;1.95;;
6372;SDS011;3219;51.362;7.074;2023-07-08T00:24:02;2.35;;;1.83;;
6372;SDS011;3219;51.362;7.074;2023-07-08T00:26:31;3.58;;;2.13;;
6372;SDS011;3219;51.362;7.074;2023-07-08T00:28:58;2.58;;;1.80;;
6372;SDS011;3219;51.362;7.074;2023-07-08T00:31:25;3.42;;;1.88;;
6372;SDS011;3219;51.362;7.074;2023-07-08T00:33:53;2.50;;;1.80;;
6372;SDS011;3219;51.362;7.074;2023-07-08T00:36:21;2.67;;;1.52;;
6372;SDS011;3219;51.362;7.074;2023-07-08T00:38:49;2.80;;;1.65;;
6372;SDS011;3219;51.362;7.074;2023-07-08T00:41:16;2.53;;;2.13;;
6372;SDS011;3219;51.362;7.074;2023-07-08T00:43:48;3.00;;;1.88;;
6372;SDS011;3219;51.362;7.074;2023-07-08T00:51:10;3.38;;;1.58;;
6372;SDS011;3219;51.362;7.074;2023-07-08T00:53:37;2.05;;;1.67;;
6372;SDS011;3219;51.362;7.074;2023-07-08T00:56:06;3.10;;;2.08;;
6372;SDS011;3219;51.362;7.074;2023-07-08T00:58:36;3.00;;;1.88;;
6372;SDS011;3219;51.362;7.074;2023-07-08T01:01:07;2.80;;;1.95;;
6372;SDS011;3219;51.362;7.074;2023-07-08T01:03:35;2.92;;;2.15;;
6372;SDS011;3219;51.362;7.074;2023-07-08T01:06:05;2.58;;;1.40;;
6372;SDS011;3219;51.362;7.074;2023-07-08T01:08:33;3.50;;;2.10;;
6372;SDS011;3219;51.362;7.074;2023-07-08T01:11:01;2.92;;;1.85;;
6372;SDS011;3219;51.362;7.074;2023-07-08T01:13:30;3.00;;;2.37;;
6372;SDS011;3219;51.362;7.074;2023-07-08T01:15:59;3.25;;;2.33;;
6372;SDS011;3219;51.362;7.074;2023-07-08T01:18:27;3.08;;;2.13;;
6372;SDS011;3219;51.362;7.074;2023-07-08T01:23:23;2.88;;;2.13;;
6372;SDS011;3219;51.362;7.074;2023-07-08T01:25:50;2.70;;;1.70;;
6372;SDS011;3219;51.362;7.074;2023-07-08T01:28:18;3.08;;;2.28;;
6372;SDS011;3219;51.362;7.074;2023-07-08T01:30:45;4.00;;;1.92;;
6372;SDS011;3219;51.362;7.074;2023-07-08T01:33:15;3.25;;;2.22;;
6372;SDS011;3219;51.362;7.074;2023-07-08T01:35:43;3.38;;;1.95;;
6372;SDS011;3219;51.362;7.074;2023-07-08T01:38:11;3.30;;;2.17;;
6372;SDS011;3219;51.362;7.074;2023-07-08T01:40:47;3.45;;;2.42;;
6372;SDS011;3219;51.362;7.074;2023-07-08T01:43:14;4.68;;;1.95;;
6372;SDS011;3219;51.362;7.074;2023-07-08T01:45:41;4.28;;;2.25;;
6372;SDS011;3219;51.362;7.074;2023-07-08T01:48:10;4.50;;;2.30;;
6372;SDS011;3219;51.362;7.074;2023-07-08T01:50:38;4.10;;;2.35;;
6372;SDS011;3219;51.362;7.074;2023-07-08T01:53:06;3.83;;;2.10;;
6372;SDS011;3219;51.362;7.074;2023-07-08T01:55:35;3.83;;;1.98;;
6372;SDS011;3219;51.362;7.074;2023-07-08T01:58:03;2.60;;;1.85;;
6372;SDS011;3219;51.362;7.074;2023-07-08T02:00:31;2.58;;;2.08;;
6372;SDS011;3219;51.362;7.074;2023-07-08T02:02:58;3.90;;;1.95;;
6372;SDS011;3219;51.362;7.074;2023-07-08T02:05:25;3.50;;;2.00;;
6372;SDS011;3219;51.362;7.074;2023-07-08T02:07:52;4.10;;;2.58;;
6372;SDS011;3219;51.362;7.074;2023-07-08T02:10:20;3.85;;;2.50;;
6372;SDS011;3219;51.362;7.074;2023-07-08T02:12:47;2.95;;;2.35;;
6372;SDS011;3219;51.362;7.074;2023-07-08T02:15:16;4.53;;;2.40;;
6372;SDS011;3219;51.362;7.074;2023-07-08T02:17:43;2.42;;;1.80;;
6372;SDS011;3219;51.362;7.074;2023-07-08T02:20:10;3.00;;;2.53;;
6372;SDS011;3219;51.362;7.074;2023-07-08T02:22:37;4.03;;;2.72;;
6372;SDS011;3219;51.362;7.074;2023-07-08T02:25:05;3.60;;;2.55;;
6372;SDS011;3219;51.362;7.074;2023-07-08T02:27:34;4.32;;;2.33;;
6372;SDS011;3219;51.362;7.074;2023-07-08T02:30:01;3.15;;;2.40;;
6372;SDS011;3219;51.362;7.074;2023-07-08T02:32:29;3.53;;;1.98;;
6372;SDS011;3219;51.362;7.074;2023-07-08T02:35:00;2.92;;;2.05;;
6372;SDS011;3219;51.362;7.074;2023-07-08T02:37:28;3.85;;;2.13;;
6372;SDS011;3219;51.362;7.074;2023-07-08T02:39:55;3.83;;;2.17;;
6372;SDS011;3219;51.362;7.074;2023-07-08T02:42:22;3.60;;;2.15;;
6372;SDS011;3219;51.362;7.074;2023-07-08T02:44:49;3.83;;;2.03;;
6372;SDS011;3219;51.362;7.074;2023-07-08T02:47:16;3.47;;;2.58;;
6372;SDS011;3219;51.362;7.074;2023-07-08T02:49:44;4.20;;;2.15;;
6372;SDS011;3219;51.362;7.074;2023-07-08T02:52:12;3.85;;;2.38;;
6372;SDS011;3219;51.362;7.074;2023-07-08T02:54:39;3.20;;;1.85;;
6372;SDS011;3219;51.362;7.074;2023-07-08T02:57:06;4.20;;;1.85;;
6372;SDS011;3219;51.362;7.074;2023-07-08T02:59:33;4.18;;;1.75;;
6372;SDS011;3219;51.362;7.074;2023-07-08T03:02:00;3.03;;;2.55;;
6372;SDS011;3219;51.362;7.074;2023-07-08T03:04:27;3.42;;;2.38;;
6372;SDS011;3219;51.362;7.074;2023-07-08T03:06:56;4.05;;;2.65;;
6372;SDS011;3219;51.362;7.074;2023-07-08T03:09:24;3.40;;;2.67;;
6372;SDS011;3219;51.362;7.074;2023-07-08T03:11:51;3.63;;;2.63;;
6372;SDS011;3219;51.362;7.074;2023-07-08T03:14:18;3.67;;;2.47;;
6372;SDS011;3219;51.362;7.074;2023-07-08T03:16:45;2.78;;;2.10;;
6372;SDS011;3219;51.362;7.074;2023-07-08T03:19:12;2.97;;;2.00;;
6372;SDS011;3219;51.362;7.074;2023-07-08T03:21:40;4.43;;;2.80;;
6372;SDS011;3219;51.362;7.074;2023-07-08T03:24:10;2.97;;;2.40;;
6372;SDS011;3219;51.362;7.074;2023-07-08T03:26:37;3.40;;;2.35;;
6372;SDS011;3219;51.362;7.074;2023-07-08T03:29:04;3.45;;;2.97;;
6372;SDS011;3219;51.362;7.074;2023-07-08T03:31:32;3.60;;;2.53;;
6372;SDS011;3219;51.362;7.074;2023-07-08T03:33:59;3.22;;;2.05;;
6372;SDS011;3219;51.362;7.074;2023-07-08T03:36:26;4.03;;;2.55;;
6372;SDS011;3219;51.362;7.074;2023-07-08T03:38:54;4.55;;;2.40;;
6372;SDS011;3219;51.362;7.074;2023-07-08T03:41:22;4.72;;;2.17;;
6372;SDS011;3219;51.362;7.074;2023-07-08T03:43:49;4.05;;;2.38;;
6372;SDS011;3219;51.362;7.074;2023-07-08T03:46:17;3.45;;;2.28;;
6372;SDS011;3219;51.362;7.074;2023-07-08T03:48:44;3.85;;;2.78;;
6372;SDS011;3219;51.362;7.074;2023-07-08T03:51:14;3.35;;;2.55;;
6372;SDS011;3219;51.362;7.074;2023-07-08T03:53:44;3.85;;;2.50;;
6372;SDS011;3219;51.362;7.074;2023-07-08T03:56:11;5.35;;;2.55;;
6372;SDS011;3219;51.362;7.074;2023-07-08T03:58:40;4.85;;;2.72;;
6372;SDS011;3219;51.362;7.074;2023-07-08T04:01:09;6.20;;;2.75;;
6372;SDS011;3219;51.362;7.074;2023-07-08T04:03:37;6.05;;;2.70;;
6372;SDS011;3219;51.362;7.074;2023-07-08T04:06:04;4.53;;;2.88;;
6372;SDS011;3219;51.362;7.074;2023-07-08T04:08:31;3.63;;;2.22;;
6372;SDS011;3219;51.362;7.074;2023-07-08T04:10:58;4.15;;;2.60;;
6372;SDS011;3219;51.362;7.074;2023-07-08T04:13:25;5.85;;;2.92;;
6372;SDS011;3219;51.362;7.074;2023-07-08T04:15:57;3.45;;;2.70;;
6372;SDS011;3219;51.362;7.074;2023-07-08T04:18:25;6.00;;;3.45;;
6372;SDS011;3219;51.362;7.074;2023-07-08T04:20:52;3.95;;;2.85;;
6372;SDS011;3219;51.362;7.074;2023-07-08T04:23:20;4.70;;;2.38;;
6372;SDS011;3219;51.362;7.074;2023-07-08T04:25:47;4.32;;;2.92;;
6372;SDS011;3219;51.362;7.074;2023-07-08T04:28:14;5.00;;;2.55;;
6372;SDS011;3219;51.362;7.074;2023-07-08T04:30:42;4.30;;;2.85;;
6372;SDS011;3219;51.362;7.074;2023-07-08T04:33:11;3.90;;;2.70;;
6372;SDS011;3219;51.362;7.074;2023-07-08T04:35:38;3.70;;;2.67;;
6372;SDS011;3219;51.362;7.074;2023-07-08T04:38:06;4.63;;;2.83;;
6372;SDS011;3219;51.362;7.074;2023-07-08T04:40:35;4.20;;;3.03;;
6372;SDS011;3219;51.362;7.074;2023-07-08T04:43:04;3.75;;;3.28;;
6372;SDS011;3219;51.362;7.074;2023-07-08T04:45:32;4.40;;;2.42;;
6372;SDS011;3219;51.362;7.074;2023-07-08T04:47:59;4.68;;;2.70;;
6372;SDS011;3219;51.362;7.074;2023-07-08T04:50:34;4.95;;;2.95;;
6372;SDS011;3219;51.362;7.074;2023-07-08T04:53:01;4.68;;;3.40;;
6372;SDS011;3219;51.362;7.074;2023-07-08T04:55:28;4.63;;;2.63;;
6372;SDS011;3219;51.362;7.074;2023-07-08T04:57:55;5.00;;;2.78;;
6372;SDS011;3219;51.362;7.074;2023-07-08T05:00:23;4.40;;;2.67;;
6372;SDS011;3219;51.362;7.074;2023-07-08T05:02:50;4.90;;;3.47;;
6372;SDS011;3219;51.362;7.074;2023-07-08T05:05:19;6.18;;;2.92;;
6372;SDS011;3219;51.362;7.074;2023-07-08T05:07:47;6.10;;;3.42;;
6372;SDS011;3219;51.362;7.074;2023-07-08T05:10:15;4.22;;;2.90;;
6372;SDS011;3219;51.362;7.074;2023-07-08T05:12:42;4.10;;;2.83;;
6372;SDS011;3219;51.362;7.074;2023-07-08T05:15:09;4.47;;;3.03;;
6372;SDS011;3219;51.362;7.074;2023-07-08T05:17:37;5.57;;;3.30;;
6372;SDS011;3219;51.362;7.074;2023-07-08T05:20:05;4.88;;;2.72;;
6372;SDS011;3219;51.362;7.074;2023-07-08T05:22:33;8.85;;;4.05;;
6372;SDS011;3219;51.362;7.074;2023-07-08T05:25:01;6.10;;;2.65;;
6372;SDS011;3219;51.362;7.074;2023-07-08T05:27:30;6.22;;;3.83;;
6372;SDS011;3219;51.362;7.074;2023-07-08T05:29:58;5.53;;;3.05;;
6372;SDS011;3219;51.362;7.074;2023-07-08T05:32:25;5.03;;;2.60;;
6372;SDS011;3219;51.362;7.074;2023-07-08T05:34:53;4.95;;;3.42;;
6372;SDS011;3219;51.362;7.074;2023-07-08T05:37:20;4.78;;;3.13;;
6372;SDS011;3219;51.362;7.074;2023-07-08T05:39:50;4.15;;;3.03;;
6372;SDS011;3219;51.362;7.074;2023-07-08T05:42:19;4.35;;;2.88;;
6372;SDS011;3219;51.362;7.074;2023-07-08T05:44:46;4.85;;;3.55;;
6372;SDS011;3219;51.362;7.074;2023-07-08T05:47:13;4.80;;;3.33;;
6372;SDS011;3219;51.362;7.074;2023-07-08T05:49:40;4.47;;;3.00;;
6372;SDS011;3219;51.362;7.074;2023-07-08T05:52:07;4.47;;;2.95;;
6372;SDS011;3219;51.362;7.074;2023-07-08T05:54:36;4.05;;;2.75;;
6372;SDS011;3219;51.362;7.074;2023-07-08T05:57:04;5.18;;;4.13;;
6372;SDS011;3219;51.362;7.074;2023-07-08T05:59:32;5.38;;;3.22;;
6372;SDS011;3219;51.362;7.074;2023-07-08T06:01:59;5.03;;;3.00;;
6372;SDS011;3219;51.362;7.074;2023-07-08T06:04:27;5.30;;;3.03;;
6372;SDS011;3219;51.362;7.074;2023-07-08T06:06:54;4.82;;;3.35;;
6372;SDS011;3219;51.362;7.074;2023-07-08T06:09:21;5.13;;;3.28;;
6372;SDS011;3219;51.362;7.074;2023-07-08T06:11:48;5.03;;;3.15;;
6372;SDS011;3219;51.362;7.074;2023-07-08T06:14:15;5.38;;;3.25;;
6372;SDS011;3219;51.362;7.074;2023-07-08T06:16:43;6.95;;;2.85;;
6372;SDS011;3219;51.362;7.074;2023-07-08T06:19:10;5.55;;;3.47;;
6372;SDS011;3219;51.362;7.074;2023-07-08T06:21:40;5.65;;;3.45;;
6372;SDS011;3219;51.362;7.074;2023-07-08T06:24:07;4.75;;;3.03;;
6372;SDS011;3219;51.362;7.074;2023-07-08T06:26:34;5.13;;;3.33;;
6372;SDS011;3219;51.362;7.074;2023-07-08T06:29:01;7.50;;;3.63;;
6372;SDS011;3219;51.362;7.074;2023-07-08T06:31:28;5.20;;;3.40;;
6372;SDS011;3219;51.362;7.074;2023-07-08T06:33:57;4.68;;;3.22;;
6372;SDS011;3219;51.362;7.074;2023-07-08T06:36:24;6.53;;;3.15;;
6372;SDS011;3219;51.362;7.074;2023-07-08T06:38:51;5.28;;;3.20;;
6372;SDS011;3219;51.362;7.074;2023-07-08T06:41:18;4.18;;;2.88;;
6372;SDS011;3219;51.362;7.074;2023-07-08T06:43:45;5.50;;;3.90;;
6372;SDS011;3219;51.362;7.074;2023-07-08T06:46:13;5.32;;;3.65;;
6372;SDS011;3219;51.362;7.074;2023-07-08T06:48:40;4.95;;;3.55;;
6372;SDS011;3219;51.362;7.074;2023-07-08T06:51:08;4.35;;;3.42;;
6372;SDS011;3219;51.362;7.074;2023-07-08T06:53:35;4.90;;;3.35;;
6372;SDS011;3219;51.362;7.074;2023-07-08T06:56:02;5.00;;;3.72;;
6372;SDS011;3219;51.362;7.074;2023-07-08T06:58:29;5.65;;;3.10;;
6372;SDS011;3219;51.362;7.074;2023-07-08T07:00:56;4.95;;;3.33;;
6372;SDS011;3219;51.362;7.074;2023-07-08T07:03:23;5.68;;;3.42;;
6372;SDS011;3219;51.362;7.074;2023-07-08T07:05:51;5.47;;;3.42;;
6372;SDS011;3219;51.362;7.074;2023-07-08T07:08:19;5.30;;;3.22;;
6372;SDS011;3219;51.362;7.074;2023-07-08T07:10:46;5.63;;;3.22;;
6372;SDS011;3219;51.362;7.074;2023-07-08T07:13:13;5.63;;;3.97;;
6372;SDS011;3219;51.362;7.074;2023-07-08T07:15:40;5.00;;;3.70;;
6372;SDS011;3219;51.362;7.074;2023-07-08T07:18:07;7.95;;;3.97;;
6372;SDS011;3219;51.362;7.074;2023-07-08T07:20:35;5.28;;;3.30;;
6372;SDS011;3219;51.362;7.074;2023-07-08T07:23:03;5.43;;;3.88;;
6372;SDS011;3219;51.362;7.074;2023-07-08T07:25:31;5.38;;;3.55;;
6372;SDS011;3219;51.362;7.074;2023-07-08T07:27:59;6.20;;;4.05;;
6372;SDS011;3219;51.362;7.074;2023-07-08T07:30:26;6.05;;;4.43;;
6372;SDS011;3219;51.362;7.074;2023-07-08T07:32:53;5.68;;;3.70;;
6372;SDS011;3219;51.362;7.074;2023-07-08T07:35:21;5.95;;;4.10;;
6372;SDS011;3219;51.362;7.074;2023-07-08T07:37:48;6.35;;;4.03;;
6372;SDS011;3219;51.362;7.074;2023-07-08T07:40:15;5.85;;;4.20;;
6372;SDS011;3219;51.362;7.074;2023-07-08T07:42:44;6.97;;;3.70;;
6372;SDS011;3219;51.362;7.074;2023-07-08T07:45:12;6.95;;;4.32;;
6372;SDS011;3219;51.362;7.074;2023-07-08T07:47:39;7.10;;;3.90;;
6372;SDS011;3219;51.362;7.074;2023-07-08T07:50:07;6.22;;;4.50;;
6372;SDS011;3219;51.362;7.074;2023-07-08T07:52:35;7.13;;;3.55;;
6372;SDS011;3219;51.362;7.074;2023-07-08T07:55:03;5.60;;;3.97;;
6372;SDS011;3219;51.362;7.074;2023-07-08T07:57:30;5.63;;;3.92;;
6372;SDS011;3219;51.362;7.074;2023-07-08T07:59:58;6.90;;;4.22;;
6372;SDS011;3219;51.362;7.074;2023-07-08T08:02:25;6.60;;;4.13;;
6372;SDS011;3219;51.362;7.074;2023-07-08T08:04:52;6.10;;;3.90;;
6372;SDS011;3219;51.362;7.074;2023-07-08T08:07:20;7.05;;;4.45;;
6372;SDS011;3219;51.362;7.074;2023-07-08T08:09:47;5.13;;;3.67;;
6372;SDS011;3219;51.362;7.074;2023-07-08T08:12:14;6.63;;;3.55;;
6372;SDS011;3219;51.362;7.074;2023-07-08T08:14:41;5.63;;;4.60;;
6372;SDS011;3219;51.362;7.074;2023-07-08T08:17:09;7.15;;;4.07;;
6372;SDS011;3219;51.362;7.074;2023-07-08T08:19:36;6.07;;;3.92;;
6372;SDS011;3219;51.362;7.074;2023-07-08T08:22:03;7.82;;;3.67;;
6372;SDS011;3219;51.362;7.074;2023-07-08T08:24:30;6.68;;;4.13;;
6372;SDS011;3219;51.362;7.074;2023-07-08T08:26:57;6.38;;;3.85;;
6372;SDS011;3219;51.362;7.074;2023-07-08T08:29:24;6.65;;;3.70;;
6372;SDS011;3219;51.362;7.074;2023-07-08T08:31:52;6.55;;;4.47;;
6372;SDS011;3219;51.362;7.074;2023-07-08T08:34:20;5.60;;;3.70;;
6372;SDS011;3219;51.362;7.074;2023-07-08T08:36:47;4.88;;;3.50;;
6372;SDS011;3219;51.362;7.074;2023-07-08T08:39:14;5.93;;;4.03;;
6372;SDS011;3219;51.362;7.074;2023-07-08T08:41:42;5.43;;;3.30;;
6372;SDS011;3219;51.362;7.074;2023-07-08T08:44:10;5.30;;;3.55;;
6372;SDS011;3219;51.362;7.074;2023-07-08T08:46:40;5.75;;;4.03;;
6372;SDS011;3219;51.362;7.074;2023-07-08T08:49:12;6.43;;;3.90;;
6372;SDS011;3219;51.362;7.074;2023-07-08T08:51:42;5.22;;;3.70;;
6372;SDS011;3219;51.362;7.074;2023-07-08T08:54:09;5.07;;;3.30;;
6372;SDS011;3219;51.362;7.074;2023-07-08T08:56:38;5.47;;;3.97;;
6372;SDS011;3219;51.362;7.074;2023-07-08T08:59:07;5.95;;;3.38;;
6372;SDS011;3219;51.362;7.074;2023-07-08T09:01:38;4.82;;;3.10;;
6372;SDS011;3219;51.362;7.074;2023-07-08T09:04:05;6.80;;;3.15;;
6372;SDS011;3219;51.362;7.074;2023-07-08T09:06:35;4.97;;;3.13;;
6372;SDS011;3219;51.362;7.074;2023-07-08T09:09:06;5.22;;;3.85;;
6372;SDS011;3219;51.362;7.074;2023-07-08T09:11:42;6.38;;;3.38;;
6372;SDS011;3219;51.362;7.074;2023-07-08T09:14:13;6.85;;;3.20;;
6372;SDS011;3219;51.362;7.074;2023-07-08T09:16:43;6.18;;;3.50;;
6372;SDS011;3219;51.362;7.074;2023-07-08T09:19:11;6.82;;;3.47;;
6372;SDS011;3219;51.362;7.074;2023-07-08T09:21:40;5.88;;;3.17;;
6372;SDS011;3219;51.362;7.074;2023-07-08T09:24:11;5.18;;;3.63;;
6372;SDS011;3219;51.362;7.074;2023-07-08T09:26:41;6.40;;;3.80;;
6372;SDS011;3219;51.362;7.074;2023-07-08T09:29:09;4.18;;;2.70;;
6372;SDS011;3219;51.362;7.074;2023-07-08T09:31:38;5.85;;;3.38;;
6372;SDS011;3219;51.362;7.074;2023-07-08T09:34:08;4.40;;;2.90;;
6372;SDS011;3219;51.362;7.074;2023-07-08T09:36:38;4.82;;;2.60;;
6372;SDS011;3219;51.362;7.074;2023-07-08T09:39:08;5.47;;;3.22;;
6372;SDS011;3219;51.362;7.074;2023-07-08T09:41:37;4.82;;;3.10;;
6372;SDS011;3219;51.362;7.074;2023-07-08T09:46:48;4.22;;;2.40;;
6372;SDS011;3219;51.362;7.074;2023-07-08T09:49:16;4.15;;;3.35;;
6372;SDS011;3219;51.362;7.074;2023-07-08T09:51:44;3.58;;;2.40;;
6372;SDS011;3219;51.362;7.074;2023-07-08T09:54:11;5.60;;;2.33;;
6372;SDS011;3219;51.362;7.074;2023-07-08T09:56:40;4.05;;;2.65;;
6372;SDS011;3219;51.362;7.074;2023-07-08T09:59:10;6.97;;;2.53;;
6372;SDS011;3219;51.362;7.074;2023-07-08T10:01:38;5.20;;;3.40;;
6372;SDS011;3219;51.362;7.074;2023-07-08T10:04:06;7.07;;;3.05;;
6372;SDS011;3219;51.362;7.074;2023-07-08T10:06:34;5.72;;;2.78;;
6372;SDS011;3219;51.362;7.074;2023-07-08T10:09:02;3.78;;;2.45;;
6372;SDS011;3219;51.362;7.074;2023-07-08T10:11:30;4.60;;;2.30;;
6372;SDS011;3219;51.362;7.074;2023-07-08T10:13:59;5.63;;;2.65;;
6372;SDS011;3219;51.362;7.074;2023-07-08T10:16:29;3.40;;;2.42;;
6372;SDS011;3219;51.362;7.074;2023-07-08T10:18:57;5.70;;;2.42;;
6372;SDS011;3219;51.362;7.074;2023-07-08T10:21:27;4.25;;;2.42;;
6372;SDS011;3219;51.362;7.074;2023-07-08T10:23:57;4.95;;;2.72;;
6372;SDS011;3219;51.362;7.074;2023-07-08T10:26:28;4.45;;;2.53;;
6372;SDS011;3219;51.362;7.074;2023-07-08T10:29:02;3.88;;;2.28;;
6372;SDS011;3219;51.362;7.074;2023-07-08T10:31:32;4.88;;;2.78;;
6372;SDS011;3219;51.362;7.074;2023-07-08T10:34:09;3.90;;;1.92;;
6372;SDS011;3219;51.362;7.074;2023-07-08T10:36:42;4.43;;;2.17;;
6372;SDS011;3219;51.362;7.074;2023-07-08T10:39:15;3.83;;;2.22;;
6372;SDS011;3219;51.362;7.074;2023-07-08T10:41:46;4.63;;;2.47;;
6372;SDS011;3219;51.362;7.074;2023-07-08T10:44:19;4.63;;;2.47;;
6372;SDS011;3219;51.362;7.074;2023-07-08T10:46:50;3.92;;;2.00;;
6372;SDS011;3219;51.362;7.074;2023-07-08T10:49:25;3.95;;;1.85;;
6372;SDS011;3219;51.362;7.074;2023-07-08T10:51:57;3.65;;;2.10;;
6372;SDS011;3219;51.362;7.074;2023-07-08T10:54:42;3.97;;;2.25;;
6372;SDS011;3219;51.362;7.074;2023-07-08T10:57:14;5.25;;;2.53;;
6372;SDS011;3219;51.362;7.074;2023-07-08T10:59:48;4.80;;;2.33;;
6372;SDS011;3219;51.362;7.074;2023-07-08T11:02:21;5.28;;;2.50;;
6372;SDS011;3219;51.362;7.074;2023-07-08T11:04:55;4.07;;;2.22;;
6372;SDS011;3219;51.362;7.074;2023-07-08T11:07:28;3.30;;;1.95;;
6372;SDS011;3219;51.362;7.074;2023-07-08T11:09:58;4.43;;;2.33;;
6372;SDS011;3219;51.362;7.074;2023-07-08T11:12:26;4.55;;;2.08;;
6372;SDS011;3219;51.362;7.074;2023-07-08T11:15:01;3.88;;;2.45;;
6372;SDS011;3219;51.362;7.074;2023-07-08T11:17:30;3.40;;;2.17;;
6372;SDS011;3219;51.362;7.074;2023-07-08T11:20:00;4.40;;;2.63;;
6372;SDS011;3219;51.362;7.074;2023-07-08T11:22:29;4.32;;;2.22;;
6372;SDS011;3219;51.362;7.074;2023-07-08T11:24:57;3.75;;;2.03;;
6372;SDS011;3219;51.362;7.074;2023-07-08T11:27:26;2.97;;;1.70;;
6372;SDS011;3219;51.362;7.074;2023-07-08T11:29:54;3.60;;;1.92;;
6372;SDS011;3219;51.362;7.074;2023-07-08T11:32:24;4.50;;;2.22;;
6372;SDS011;3219;51.362;7.074;2023-07-08T11:34:52;5.05;;;1.88;;
6372;SDS011;3219;51.362;7.074;2023-07-08T11:37:20;3.67;;;2.13;;
6372;SDS011;3219;51.362;7.074;2023-07-08T11:39:52;2.83;;;1.58;;
6372;SDS011;3219;51.362;7.074;2023-07-08T11:42:20;4.32;;;2.65;;
6372;SDS011;3219;51.362;7.074;2023-07-08T11:44:49;4.25;;;1.95;;
6372;SDS011;3219;51.362;7.074;2023-07-08T11:47:18;4.00;;;2.38;;
6372;SDS011;3219;51.362;7.074;2023-07-08T11:49:47;4.32;;;2.40;;
6372;SDS011;3219;51.362;7.074;2023-07-08T11:52:16;4.40;;;2.28;;
6372;SDS011;3219;51.362;7.074;2023-07-08T11:54:45;3.80;;;1.77;;
6372;SDS011;3219;51.362;7.074;2023-07-08T11:57:16;7.43;;;2.10;;
6372;SDS011;3219;51.362;7.074;2023-07-08T11:59:43;4.43;;;2.28;;
6372;SDS011;3219;51.362;7.074;2023-07-08T12:02:12;4.95;;;2.38;;
6372;SDS011;3219;51.362;7.074;2023-07-08T12:04:53;5.80;;;2.15;;
6372;SDS011;3219;51.362;7.074;2023-07-08T12:07:29;3.03;;;1.92;;
6372;SDS011;3219;51.362;7.074;2023-07-08T12:09:57;4.97;;;2.45;;
6372;SDS011;3219;51.362;7.074;2023-07-08T12:12:28;4.10;;;2.45;;
6372;SDS011;3219;51.362;7.074;2023-07-08T12:14:59;4.78;;;1.90;;
6372;SDS011;3219;51.362;7.074;2023-07-08T12:17:27;4.13;;;2.47;;
6372;SDS011;3219;51.362;7.074;2023-07-08T12:19:56;3.95;;;2.13;;
6372;SDS011;3219;51.362;7.074;2023-07-08T12:22:24;5.53;;;2.15;;
6372;SDS011;3219;51.362;7.074;2023-07-08T12:24:51;6.80;;;2.45;;
6372;SDS011;3219;51.362;7.074;2023-07-08T12:27:21;3.28;;;2.22;;
6372;SDS011;3219;51.362;7.074;2023-07-08T12:29:48;5.97;;;2.30;;
6372;SDS011;3219;51.362;7.074;2023-07-08T12:32:15;2.67;;;1.65;;
6372;SDS011;3219;51.362;7.074;2023-07-08T12:34:44;3.75;;;1.77;;
6372;SDS011;3219;51.362;7.074;2023-07-08T12:37:13;4.28;;;2.28;;
6372;SDS011;3219;51.362;7.074;2023-07-08T12:39:40;2.80;;;1.70;;
6372;SDS011;3219;51.362;7.074;2023-07-08T12:42:08;3.47;;;2.30;;
6372;SDS011;3219;51.362;7.074;2023-07-08T12:44:37;3.35;;;2.03;;
6372;SDS011;3219;51.362;7.074;2023-07-08T12:47:07;4.47;;;2.40;;
6372;SDS011;3219;51.362;7.074;2023-07-08T12:49:34;5.05;;;2.38;;
6372;SDS011;3219;51.362;7.074;2023-07-08T12:52:02;3.72;;;1.85;;
6372;SDS011;3219;51.362;7.074;2023-07-08T12:54:30;4.28;;;2.20;;
6372;SDS011;3219;51.362;7.074;2023-07-08T12:56:58;3.47;;;2.35;;
6372;SDS011;3219;51.362;7.074;2023-07-08T12:59:26;4.07;;;2.58;;
6372;SDS011;3219;51.362;7.074;2023-07-08T13:01:53;4.70;;;1.88;;
6372;SDS011;3219;51.362;7.074;2023-07-08T13:04:20;3.58;;;2.05;;
6372;SDS011;3219;51.362;7.074;2023-07-08T13:06:47;4.15;;;2.70;;
6372;SDS011;3219;51.362;7.074;2023-07-08T13:09:28;7.25;;;2.60;;
6372;SDS011;3219;51.362;7.074;2023-07-08T13:11:59;5.03;;;1.90;;
6372;SDS011;3219;51.362;7.074;2023-07-08T13:14:28;4.80;;;2.53;;
6372;SDS011;3219;51.362;7.074;2023-07-08T13:16:55;5.43;;;2.20;;
6372;SDS011;3219;51.362;7.074;2023-07-08T13:19:23;4.75;;;2.40;;
6372;SDS011;3219;51.362;7.074;2023-07-08T13:21:50;3.60;;;1.88;;
6372;SDS011;3219;51.362;7.074;2023-07-08T13:24:17;4.25;;;2.15;;
6372;SDS011;3219;51.362;7.074;2023-07-08T13:26:45;4.28;;;2.30;;
6372;SDS011;3219;51.362;7.074;2023-07-08T13:29:14;3.78;;;2.08;;
6372;SDS011;3219;51.362;7.074;2023-07-08T13:31:43;3.95;;;2.38;;
6372;SDS011;3219;51.362;7.074;2023-07-08T13:36:38;3.95;;;2.00;;
6372;SDS011;3219;51.362;7.074;2023-07-08T13:39:06;5.10;;;2.10;;
6372;SDS011;3219;51.362;7.074;2023-07-08T13:41:33;3.08;;;1.58;;
6372;SDS011;3219;51.362;7.074;2023-07-08T13:44:03;3.55;;;1.80;;
6372;SDS011;3219;51.362;7.074;2023-07-08T13:46:35;5.45;;;2.10;;
6372;SDS011;3219;51.362;7.074;2023-07-08T13:49:03;4.68;;;2.35;;
6372;SDS011;3219;51.362;7.074;2023-07-08T13:51:36;4.15;;;2.08;;
6372;SDS011;3219;51.362;7.074;2023-07-08T13:54:08;5.35;;;2.17;;
6372;SDS011;3219;51.362;7.074;2023-07-08T13:56:36;3.78;;;2.13;;
6372;SDS011;3219;51.362;7.074;2023-07-08T13:59:03;4.18;;;2.15;;
6372;SDS011;3219;51.362;7.074;2023-07-08T14:01:31;5.32;;;1.85;;
6372;SDS011;3219;51.362;7.074;2023-07-08T14:04:00;4.10;;;1.77;;
6372;SDS011;3219;51.362;7.074;2023-07-08T14:06:29;3.70;;;1.95;;
6372;SDS011;3219;51.362;7.074;2023-07-08T14:08:57;4.05;;;1.73;;
6372;SDS011;3219;51.362;7.074;2023-07-08T14:11:25;3.40;;;2.20;;
6372;SDS011;3219;51.362;7.074;2023-07-08T14:13:52;3.67;;;2.40;;
6372;SDS011;3219;51.362;7.074;2023-07-08T14:16:21;4.18;;;2.45;;
6372;SDS011;3219;51.362;7.074;2023-07-08T14:18:50;3.60;;;2.28;;
6372;SDS011;3219;51.362;7.074;2023-07-08T14:21:18;4.80;;;2.13;;
6372;SDS011;3219;51.362;7.074;2023-07-08T14:23:45;2.75;;;1.95;;
6372;SDS011;3219;51.362;7.074;2023-07-08T14:26:13;4.00;;;1.85;;
6372;SDS011;3219;51.362;7.074;2023-07-08T14:28:40;4.00;;;2.30;;
6372;SDS011;3219;51.362;7.074;2023-07-08T14:31:08;3.20;;;2.35;;
6372;SDS011;3219;51.362;7.074;2023-07-08T14:36:04;3.30;;;2.03;;
6372;SDS011;3219;51.362;7.074;2023-07-08T14:38:32;4.47;;;2.00;;
6372;SDS011;3219;51.362;7.074;2023-07-08T14:40:59;4.95;;;2.42;;
6372;SDS011;3219;51.362;7.074;2023-07-08T14:43:27;6.00;;;2.10;;
6372;SDS011;3219;51.362;7.074;2023-07-08T14:45:55;3.20;;;2.05;;
6372;SDS011;3219;51.362;7.074;2023-07-08T14:48:22;5.53;;;2.33;;
6372;SDS011;3219;51.362;7.074;2023-07-08T14:50:49;3.92;;;2.38;;
6372;SDS011;3219;51.362;7.074;2023-07-08T14:53:17;4.28;;;2.08;;
6372;SDS011;3219;51.362;7.074;2023-07-08T14:55:47;3.95;;;2.55;;
6372;SDS011;3219;51.362;7.074;2023-07-08T14:58:17;6.72;;;2.60;;
6372;SDS011;3219;51.362;7.074;2023-07-08T15:00:47;3.92;;;1.80;;
6372;SDS011;3219;51.362;7.074;2023-07-08T15:03:14;4.85;;;2.25;;
6372;SDS011;3219;51.362;7.074;2023-07-08T15:05:41;4.22;;;2.35;;
6372;SDS011;3219;51.362;7.074;2023-07-08T15:08:08;4.22;;;2.20;;
6372;SDS011;3219;51.362;7.074;2023-07-08T15:10:35;4.03;;;2.33;;
6372;SDS011;3219;51.362;7.074;2023-07-08T15:13:04;3.25;;;2.15;;
6372;SDS011;3219;51.362;7.074;2023-07-08T15:15:34;4.07;;;2.75;;
6372;SDS011;3219;51.362;7.074;2023-07-08T15:18:02;4.43;;;2.72;;
6372;SDS011;3219;51.362;7.074;2023-07-08T15:20:32;4.28;;;2.17;;
6372;SDS011;3219;51.362;7.074;2023-07-08T15:22:59;4.13;;;2.63;;
6372;SDS011;3219;51.362;7.074;2023-07-08T15:25:26;3.72;;;2.60;;
6372;SDS011;3219;51.362;7.074;2023-07-08T15:27:54;5.15;;;2.50;;
6372;SDS011;3219;51.362;7.074;2023-07-08T15:30:24;4.55;;;1.98;;
6372;SDS011;3219;51.362;7.074;2023-07-08T15:32:51;8.32;;;2.63;;
6372;SDS011;3219;51.362;7.074;2023-07-08T15:35:19;4.47;;;2.42;;
6372;SDS011;3219;51.362;7.074;2023-07-08T15:37:46;4.65;;;2.50;;